Terminal Aerodrome Forecast
Issued by NWS Sioux Falls, SD

Home | Current Version | Previous Version | Graphics & Text | Print | Product List | Glossary Off
Versions: 1 2 3 4 5 6 7 8 9 10 11 12 13 14 15 16

795
FTUS43 KFSD 271614 AAB
TAFHON
TAF AMD
KHON 271614Z 2716/2812 18010KT P6SM SHRA BKN015
     FM271800 03007KT P6SM SHRA SCT015 BKN035
     FM272200 01008KT P6SM BKN060
     FM280700 01004KT P6SM BKN080=

USA.gov is the U.S. government's official web portal to all federal, state and local government web resources and services.